Time;durP1;ratioP1;P1;durP2;ratioP2;P2;SDS_P1;SDS_P2;PMS_P1;PMS_P2;Temp;Humidity;BMP_temperature;BMP_pressure;BME280_temperature;BME280_humidity;BME280_pressure;Samples;Min_cycle;Max_cycle;Signal;HPM_P1;HPM_P2
2022/08/21 00:01:15;;;;;;;3.47;3.10;;;22.80;59.60;;;;;;5017871;28;20231;-75
2022/08/21 00:03:42;;;;;;;4.65;2.90;;;22.70;59.60;;;;;;5018206;28;20208;-74
2022/08/21 00:06:09;;;;;;;4.20;3.10;;;22.70;59.60;;;;;;5018566;28;20535;-74
2022/08/21 00:08:37;;;;;;;4.07;3.05;;;22.70;59.60;;;;;;5018728;28;20259;-73
2022/08/21 00:11:05;;;;;;;3.90;2.72;;;22.70;59.60;;;;;;5035647;28;20251;-76
2022/08/21 00:13:32;;;;;;;3.50;3.03;;;22.70;59.70;;;;;;5017575;28;20683;-75
2022/08/21 00:15:59;;;;;;;3.05;2.63;;;22.70;59.70;;;;;;5017475;28;20200;-74
2022/08/21 00:18:27;;;;;;;3.67;2.92;;;22.70;59.70;;;;;;5017222;28;20654;-74
2022/08/21 00:20:54;;;;;;;3.58;3.05;;;22.70;59.70;;;;;;5020629;28;20690;-75
2022/08/21 00:23:21;;;;;;;3.22;2.58;;;22.70;59.70;;;;;;5020997;28;20254;-74
2022/08/21 00:25:50;;;;;;;3.65;2.70;;;22.70;59.80;;;;;;5038714;28;20185;-76
2022/08/21 00:28:17;;;;;;;3.47;2.85;;;22.70;59.80;;;;;;5020470;28;20651;-76
2022/08/21 00:30:44;;;;;;;2.88;2.67;;;22.70;59.80;;;;;;5004734;28;20224;-75
2022/08/21 00:33:11;;;;;;;2.88;2.60;;;22.70;59.80;;;;;;5021333;28;20196;-74
2022/08/21 00:35:39;;;;;;;2.95;2.45;;;22.70;59.80;;;;;;5003830;28;20298;-75
2022/08/21 00:38:07;;;;;;;3.20;2.80;;;22.70;59.80;;;;;;5020413;28;20295;-75
2022/08/21 00:40:35;;;;;;;3.28;2.70;;;22.60;59.70;;;;;;5020487;28;20277;-75
2022/08/21 00:43:04;;;;;;;3.25;2.60;;;22.60;59.80;;;;;;5020478;28;20207;-75
2022/08/21 00:45:31;;;;;;;3.38;2.70;;;22.60;59.70;;;;;;5020037;28;20541;-74
2022/08/21 00:47:58;;;;;;;4.00;2.50;;;22.60;59.80;;;;;;5038055;28;20283;-75
2022/08/21 00:50:26;;;;;;;3.50;2.65;;;22.60;59.80;;;;;;5020201;28;20220;-74
2022/08/21 00:52:53;;;;;;;2.63;2.40;;;22.60;59.80;;;;;;5020369;28;20196;-75
2022/08/21 00:55:20;;;;;;;3.15;2.50;;;22.60;59.80;;;;;;5021107;28;20195;-75
2022/08/21 00:57:50;;;;;;;3.30;2.38;;;22.60;59.90;;;;;;5020193;28;20279;-76
2022/08/21 01:00:20;;;;;;;2.85;2.60;;;22.60;59.90;;;;;;5019858;28;20311;-76
2022/08/21 01:02:47;;;;;;;2.40;2.10;;;22.60;59.90;;;;;;5020313;28;20196;-74
2022/08/21 01:05:14;;;;;;;2.80;2.42;;;22.60;59.90;;;;;;5019725;28;20200;-76
2022/08/21 01:07:41;;;;;;;3.15;2.47;;;22.60;59.90;;;;;;5019726;28;20606;-76
2022/08/21 01:10:09;;;;;;;2.58;2.38;;;22.60;59.90;;;;;;5019637;28;20228;-75
2022/08/21 01:12:36;;;;;;;4.05;2.45;;;22.60;59.90;;;;;;5020204;28;20196;-76
2022/08/21 01:15:04;;;;;;;3.25;2.33;;;22.50;59.90;;;;;;5019555;28;20667;-76
2022/08/21 01:17:33;;;;;;;2.60;2.40;;;22.50;59.90;;;;;;5019567;28;20192;-76
2022/08/21 01:20:00;;;;;;;2.40;2.20;;;22.50;59.90;;;;;;5019310;28;20299;-74
2022/08/21 01:22:28;;;;;;;2.90;2.30;;;22.50;59.90;;;;;;5019713;28;20279;-74
2022/08/21 01:24:55;;;;;;;2.92;2.33;;;22.50;59.90;;;;;;5003139;28;20566;-74
2022/08/21 01:27:22;;;;;;;2.50;2.30;;;22.50;59.90;;;;;;5020648;28;20200;-74
2022/08/21 01:29:52;;;;;;;3.03;2.30;;;22.50;59.90;;;;;;5019041;28;20239;-74
2022/08/21 01:32:19;;;;;;;3.05;2.30;;;22.50;59.90;;;;;;5018926;28;20199;-76
2022/08/21 01:34:47;;;;;;;2.47;2.17;;;22.50;59.90;;;;;;5019631;28;20204;-76
2022/08/21 01:37:15;;;;;;;2.53;2.28;;;22.50;59.90;;;;;;5019190;28;20212;-75
2022/08/21 01:39:44;;;;;;;4.28;2.28;;;22.50;59.90;;;;;;5018986;28;20254;-76
2022/08/21 01:42:10;;;;;;;2.90;2.20;;;22.50;59.90;;;;;;5020657;28;20662;-76
2022/08/21 01:44:38;;;;;;;2.55;2.30;;;22.50;59.90;;;;;;5019372;28;20257;-74
2022/08/21 01:47:07;;;;;;;2.72;2.20;;;22.50;59.90;;;;;;5003695;28;20350;-76
2022/08/21 01:49:34;;;;;;;3.85;2.20;;;22.50;60.00;;;;;;5037042;28;20208;-76
2022/08/21 01:52:01;;;;;;;4.45;2.40;;;22.50;59.90;;;;;;5019370;28;20291;-75
2022/08/21 01:54:28;;;;;;;2.50;2.28;;;22.50;60.00;;;;;;5019656;28;20202;-74
2022/08/21 01:56:57;;;;;;;3.38;2.10;;;22.50;59.90;;;;;;5003721;28;20264;-74
2022/08/21 01:59:24;;;;;;;2.90;2.08;;;22.50;60.00;;;;;;5020104;28;20192;-76
2022/08/21 02:01:53;;;;;;;2.50;2.30;;;22.50;60.00;;;;;;5002793;28;20212;-74
2022/08/21 02:04:20;;;;;;;3.03;2.40;;;22.50;60.00;;;;;;5018735;28;20200;-74
2022/08/21 02:06:47;;;;;;;2.42;2.10;;;22.40;59.90;;;;;;5018984;28;20207;-76
2022/08/21 02:09:15;;;;;;;2.78;2.10;;;22.40;59.90;;;;;;5018878;28;20248;-76
2022/08/21 02:11:42;;;;;;;3.25;2.35;;;22.40;59.90;;;;;;5018802;28;20216;-74
2022/08/21 02:14:12;;;;;;;3.22;2.00;;;22.40;59.90;;;;;;5019422;28;20223;-74
2022/08/21 02:16:39;;;;;;;2.53;2.15;;;22.40;59.90;;;;;;5018784;28;20238;-76
2022/08/21 02:19:06;;;;;;;2.33;2.08;;;22.40;59.90;;;;;;5002669;28;20222;-76
2022/08/21 02:21:33;;;;;;;2.10;1.90;;;22.40;59.90;;;;;;5018141;28;20228;-74
2022/08/21 02:24:01;;;;;;;2.13;1.92;;;22.40;59.90;;;;;;5018726;28;20204;-75
2022/08/21 02:26:28;;;;;;;3.38;2.25;;;22.40;59.90;;;;;;5018393;28;20200;-75
2022/08/21 02:28:55;;;;;;;2.10;1.90;;;22.40;59.90;;;;;;5019102;28;20200;-76
2022/08/21 02:31:24;;;;;;;2.20;2.00;;;22.40;59.90;;;;;;5019210;28;20226;-74
2022/08/21 02:33:51;;;;;;;2.85;2.20;;;22.40;59.90;;;;;;5018585;28;20195;-76
2022/08/21 02:36:18;;;;;;;2.85;2.15;;;22.40;59.90;;;;;;5018141;28;20266;-74
2022/08/21 02:38:45;;;;;;;2.20;2.00;;;22.40;59.90;;;;;;5018563;28;20208;-76
2022/08/21 02:41:14;;;;;;;2.65;2.15;;;22.40;59.90;;;;;;5001821;28;20248;-74
2022/08/21 02:43:41;;;;;;;2.10;1.83;;;22.40;60.00;;;;;;4984377;28;20200;-74
2022/08/21 02:46:08;;;;;;;2.40;2.20;;;22.30;59.90;;;;;;5035141;28;20246;-74
2022/08/21 02:48:37;;;;;;;2.70;2.13;;;22.30;59.90;;;;;;5017121;28;20569;-74
2022/08/21 02:51:05;;;;;;;2.38;2.13;;;22.30;59.90;;;;;;5034584;28;20307;-75
2022/08/21 02:53:33;;;;;;;1.92;1.83;;;22.30;59.90;;;;;;5017358;28;20200;-74
2022/08/21 02:56:01;;;;;;;2.30;2.08;;;22.30;59.90;;;;;;5017043;28;20207;-74
2022/08/21 02:58:31;;;;;;;2.33;1.83;;;22.30;60.00;;;;;;5017362;28;20200;-76
2022/08/21 03:00:58;;;;;;;1.95;1.85;;;22.30;59.90;;;;;;5018009;28;20208;-74
2022/08/21 03:03:25;;;;;;;2.72;2.05;;;22.30;59.90;;;;;;5018218;28;20206;-76
2022/08/21 03:05:53;;;;;;;2.13;1.90;;;22.30;59.90;;;;;;5017794;28;20659;-76
2022/08/21 03:08:20;;;;;;;2.25;2.03;;;22.30;59.90;;;;;;5018162;28;20192;-74
2022/08/21 03:10:48;;;;;;;2.03;1.80;;;22.30;59.90;;;;;;5017735;28;20290;-74
2022/08/21 03:13:15;;;;;;;2.20;1.88;;;22.30;59.90;;;;;;5035636;28;20184;-74
2022/08/21 03:15:42;;;;;;;2.75;1.80;;;22.30;59.70;;;;;;5018287;28;20192;-75
2022/08/21 03:18:10;;;;;;;2.05;1.88;;;22.30;59.50;;;;;;5018771;28;20574;-74
2022/08/21 03:20:37;;;;;;;1.80;1.70;;;22.30;59.30;;;;;;5018098;28;20639;-75
2022/08/21 03:23:05;;;;;;;2.13;1.70;;;22.30;59.30;;;;;;5018190;28;20201;-74
2022/08/21 03:25:32;;;;;;;2.20;2.00;;;22.30;59.30;;;;;;5018427;28;20199;-76
2022/08/21 03:28:00;;;;;;;2.20;2.00;;;22.40;59.10;;;;;;5017718;28;20204;-76
2022/08/21 03:30:27;;;;;;;2.78;2.10;;;22.50;58.90;;;;;;5000887;28;20277;-74
2022/08/21 03:32:54;;;;;;;2.85;1.90;;;22.50;58.70;;;;;;5001950;28;20635;-74
2022/08/21 03:35:21;;;;;;;2.03;1.80;;;22.60;58.60;;;;;;5000920;28;20207;-76
2022/08/21 03:37:48;;;;;;;2.88;2.05;;;22.70;58.40;;;;;;5017531;28;20235;-74
2022/08/21 03:40:18;;;;;;;2.35;1.88;;;22.70;58.20;;;;;;5001719;28;20219;-74
2022/08/21 03:42:46;;;;;;;2.90;1.85;;;22.80;58.10;;;;;;5017765;28;20322;-74
2022/08/21 03:45:14;;;;;;;1.90;1.70;;;22.80;57.90;;;;;;5017686;28;20246;-74
2022/08/21 03:47:52;;;;;;;3.13;1.80;;;22.90;57.90;;;;;;5017516;28;20682;-76
2022/08/21 03:50:18;;;;;;;2.25;1.80;;;22.90;57.80;;;;;;5001488;28;20712;-74
2022/08/21 03:52:47;;;;;;;2.30;1.80;;;22.90;57.80;;;;;;5017612;28;20216;-74
2022/08/21 03:55:17;;;;;;;2.00;1.80;;;22.90;57.70;;;;;;5021583;28;20191;-74
2022/08/21 03:57:44;;;;;;;2.15;1.80;;;22.90;57.60;;;;;;5005211;28;20235;-74
2022/08/21 04:00:13;;;;;;;2.65;1.80;;;22.90;57.50;;;;;;5022266;28;20218;-73
2022/08/21 04:02:40;;;;;;;1.67;1.58;;;22.90;57.50;;;;;;5022579;28;20192;-74
2022/08/21 04:05:07;;;;;;;1.98;1.77;;;22.90;57.40;;;;;;5023438;28;20226;-76
2022/08/21 04:07:35;;;;;;;2.03;1.80;;;22.90;57.40;;;;;;5021314;28;20207;-75
2022/08/21 04:10:02;;;;;;;1.70;1.60;;;22.90;57.30;;;;;;5021256;28;20251;-74
2022/08/21 04:12:31;;;;;;;1.85;1.75;;;22.90;57.30;;;;;;5004803;28;20220;-73
2022/08/21 04:14:58;;;;;;;2.08;1.80;;;22.90;57.40;;;;;;5021590;28;20192;-75
2022/08/21 04:17:25;;;;;;;2.10;1.73;;;22.90;57.40;;;;;;5021245;28;20211;-75
2022/08/21 04:19:52;;;;;;;1.77;1.52;;;22.90;57.40;;;;;;5005241;28;20192;-76
2022/08/21 04:22:19;;;;;;;1.85;1.75;;;22.90;57.40;;;;;;5021140;28;20266;-76
2022/08/21 04:24:46;;;;;;;2.67;1.60;;;22.90;57.40;;;;;;5021006;28;20204;-74
2022/08/21 04:27:13;;;;;;;1.80;1.70;;;22.80;57.30;;;;;;5021150;28;20192;-75
2022/08/21 04:29:41;;;;;;;2.40;1.80;;;22.90;57.40;;;;;;5020858;28;20204;-74
2022/08/21 04:32:09;;;;;;;2.08;1.88;;;22.80;57.40;;;;;;5020985;28;20202;-75
2022/08/21 04:34:36;;;;;;;2.00;1.67;;;22.80;57.40;;;;;;5020578;28;20208;-74
2022/08/21 04:37:03;;;;;;;2.15;1.95;;;22.80;57.40;;;;;;5021113;28;20195;-74
2022/08/21 04:39:30;;;;;;;2.00;1.90;;;22.80;57.30;;;;;;5023502;28;20191;-74
2022/08/21 04:41:56;;;;;;;1.70;1.60;;;22.70;57.30;;;;;;5022995;28;20231;-74
2022/08/21 04:44:23;;;;;;;3.75;1.90;;;22.80;57.40;;;;;;5034058;28;20727;-74
2022/08/21 04:46:52;;;;;;;1.70;1.60;;;22.70;57.30;;;;;;5020550;28;20200;-75
2022/08/21 04:49:18;;;;;;;2.20;2.00;;;22.70;57.30;;;;;;5020715;28;20204;-75
2022/08/21 04:51:47;;;;;;;1.80;1.67;;;22.70;57.30;;;;;;5019952;28;20603;-75
2022/08/21 04:54:17;;;;;;;2.17;1.92;;;22.70;57.30;;;;;;5020196;28;20253;-74
2022/08/21 04:56:45;;;;;;;2.25;1.90;;;22.70;57.30;;;;;;5019782;28;20268;-76
2022/08/21 04:59:16;;;;;;;2.35;1.80;;;22.70;57.30;;;;;;5019420;28;20292;-73
2022/08/21 05:01:43;;;;;;;1.77;1.67;;;22.70;57.30;;;;;;5018970;28;20216;-73
2022/08/21 05:04:13;;;;;;;1.90;1.70;;;22.70;57.30;;;;;;5018421;28;20238;-73
2022/08/21 05:06:40;;;;;;;1.85;1.67;;;22.70;57.40;;;;;;5018433;28;20188;-73
2022/08/21 05:09:09;;;;;;;1.73;1.58;;;22.70;57.30;;;;;;5018297;28;20274;-73
2022/08/21 05:11:36;;;;;;;1.92;1.80;;;22.70;57.40;;;;;;5018025;28;20278;-74
2022/08/21 05:14:03;;;;;;;2.70;1.98;;;22.70;57.40;;;;;;5018708;28;20220;-74
2022/08/21 05:16:30;;;;;;;1.90;1.70;;;22.70;57.40;;;;;;5018008;28;20254;-76
2022/08/21 05:18:58;;;;;;;2.15;1.73;;;22.70;57.30;;;;;;5017937;28;20196;-76
2022/08/21 05:21:26;;;;;;;1.83;1.73;;;22.70;57.20;;;;;;5017959;28;20215;-76
2022/08/21 05:26:28;;;;;;;2.13;1.80;;;22.80;57.00;;;;;;5054042;28;20226;-73
2022/08/21 05:28:55;;;;;;;2.38;1.90;;;22.80;56.90;;;;;;5038238;28;20716;-73
2022/08/21 05:31:23;;;;;;;1.85;1.65;;;22.90;56.90;;;;;;5053073;28;20208;-75
2022/08/21 05:33:51;;;;;;;2.13;1.83;;;23.10;56.70;;;;;;5040849;28;20727;-76
2022/08/21 05:36:19;;;;;;;2.20;1.90;;;23.10;56.30;;;;;;5039470;28;20658;-77
2022/08/21 05:38:47;;;;;;;2.42;1.70;;;23.30;56.00;;;;;;5037922;28;20199;-74
2022/08/21 05:41:15;;;;;;;1.95;1.80;;;23.40;55.70;;;;;;5038505;28;20211;-77
2022/08/21 05:43:42;;;;;;;2.20;1.60;;;23.50;55.40;;;;;;5037844;28;20711;-77
2022/08/21 05:46:09;;;;;;;1.85;1.70;;;23.60;55.00;;;;;;5037434;28;20205;-76
2022/08/21 05:48:36;;;;;;;1.90;1.70;;;23.80;54.80;;;;;;5055349;28;20556;-75
2022/08/21 05:51:05;;;;;;;2.10;1.90;;;24.00;54.40;;;;;;5037308;28;20227;-75
2022/08/21 05:53:32;;;;;;;1.67;1.58;;;24.10;53.90;;;;;;5054034;28;20251;-76
2022/08/21 05:56:03;;;;;;;1.92;1.70;;;24.30;53.60;;;;;;5037491;28;20195;-75
2022/08/21 05:58:30;;;;;;;1.67;1.58;;;24.50;53.20;;;;;;5037311;28;20262;-75
2022/08/21 06:00:58;;;;;;;2.42;1.92;;;24.60;52.90;;;;;;5053699;28;20697;-75
2022/08/21 06:03:27;;;;;;;1.80;1.70;;;24.70;52.50;;;;;;5037072;28;20223;-77
2022/08/21 06:05:54;;;;;;;1.92;1.73;;;24.90;52.20;;;;;;5036661;28;20211;-76
2022/08/21 06:08:21;;;;;;;1.83;1.70;;;25.00;52.00;;;;;;5053506;28;20195;-75
2022/08/21 06:10:48;;;;;;;2.47;1.55;;;25.10;51.60;;;;;;5036888;28;20227;-76
2022/08/21 06:13:17;;;;;;;2.95;1.50;;;25.20;51.40;;;;;;5036997;28;20564;-76
2022/08/21 06:15:44;;;;;;;1.95;1.75;;;25.30;51.20;;;;;;5036889;28;20219;-75
2022/08/21 06:18:11;;;;;;;2.17;1.60;;;25.40;50.90;;;;;;5035994;28;20282;-75
2022/08/21 06:20:39;;;;;;;1.88;1.60;;;25.50;50.70;;;;;;5036930;28;20218;-75
2022/08/21 06:23:06;;;;;;;2.03;1.73;;;25.60;50.50;;;;;;5036839;28;20210;-74
2022/08/21 06:25:33;;;;;;;1.60;1.50;;;25.70;50.30;;;;;;5036449;28;20234;-73
2022/08/21 06:28:04;;;;;;;1.50;1.40;;;25.70;50.10;;;;;;5036401;28;20688;-74
2022/08/21 06:33:09;;;;;;;1.70;1.60;;;25.90;49.70;;;;;;5034588;28;20207;-76
2022/08/21 06:35:38;;;;;;;1.88;1.70;;;26.00;49.40;;;;;;5018077;28;20202;-75
2022/08/21 06:38:05;;;;;;;1.92;1.60;;;26.10;49.40;;;;;;5035695;28;20602;-76
2022/08/21 06:40:32;;;;;;;1.80;1.50;;;26.20;49.10;;;;;;5029840;28;20220;-74
2022/08/21 06:43:05;;;;;;;1.65;1.55;;;26.20;49.00;;;;;;5014033;28;20288;-75
2022/08/21 06:45:32;;;;;;;1.80;1.70;;;26.30;48.80;;;;;;5014884;28;20200;-75
2022/08/21 06:47:59;;;;;;;2.55;1.73;;;26.40;48.60;;;;;;5013377;28;20206;-75
2022/08/21 06:50:28;;;;;;;2.72;1.70;;;26.40;49.10;;;;;;5046955;22;20246;-73
2022/08/21 06:52:59;;;;;;;1.83;1.42;;;26.50;48.40;;;;;;5016551;28;20214;-74
2022/08/21 06:55:26;;;;;;;1.80;1.70;;;26.60;48.90;;;;;;5017707;28;20192;-75
2022/08/21 06:57:53;;;;;;;1.80;1.70;;;26.60;48.00;;;;;;5017164;28;20196;-74
2022/08/21 07:00:21;;;;;;;2.78;1.70;;;26.70;47.90;;;;;;5016303;28;20219;-74
2022/08/21 07:02:48;;;;;;;2.50;1.73;;;26.70;47.70;;;;;;5016510;28;20673;-76
2022/08/21 07:05:15;;;;;;;2.10;1.60;;;26.80;47.70;;;;;;5016190;28;20206;-73
2022/08/21 07:07:43;;;;;;;1.63;1.52;;;26.80;47.60;;;;;;5016036;28;20204;-76
2022/08/21 07:10:10;;;;;;;1.70;1.60;;;26.90;47.40;;;;;;4999655;28;20226;-73
2022/08/21 07:12:38;;;;;;;1.77;1.60;;;26.90;47.40;;;;;;4999888;28;20300;-74
2022/08/21 07:15:05;;;;;;;1.58;1.48;;;27.00;47.30;;;;;;5016140;28;20199;-74
2022/08/21 07:17:32;;;;;;;1.70;1.60;;;27.00;47.30;;;;;;5015874;28;20227;-74
2022/08/21 07:19:59;;;;;;;2.42;1.60;;;27.00;47.30;;;;;;4999721;28;20273;-76
2022/08/21 07:22:27;;;;;;;1.83;1.50;;;27.10;47.00;;;;;;5016020;28;20569;-75
2022/08/21 07:24:56;;;;;;;1.80;1.60;;;27.20;47.00;;;;;;5016064;28;20677;-74
2022/08/21 07:27:23;;;;;;;1.70;1.60;;;27.20;46.90;;;;;;5016077;28;20210;-76
2022/08/21 07:29:50;;;;;;;1.90;1.67;;;27.20;46.70;;;;;;5021127;28;20221;-76
2022/08/21 07:32:17;;;;;;;1.52;1.42;;;27.20;46.80;;;;;;5020140;28;20288;-75
2022/08/21 07:34:45;;;;;;;2.10;1.63;;;27.20;46.90;;;;;;5020493;28;20211;-74
2022/08/21 07:37:12;;;;;;;2.63;2.00;;;27.30;47.40;;;;;;5020926;28;20191;-76
2022/08/21 07:39:39;;;;;;;3.42;2.00;;;27.30;47.30;;;;;;5021266;28;20206;-76
2022/08/21 07:42:07;;;;;;;3.33;2.40;;;27.20;47.10;;;;;;5021619;28;20192;-73
2022/08/21 07:44:35;;;;;;;4.93;2.10;;;27.20;47.80;;;;;;5030158;28;20202;-74
2022/08/21 07:47:01;;;;;;;3.03;2.40;;;27.10;47.70;;;;;;5020049;28;20282;-76
2022/08/21 07:49:29;;;;;;;3.35;2.22;;;27.20;47.40;;;;;;5019797;28;20226;-74
2022/08/21 07:51:56;;;;;;;3.00;2.25;;;27.30;47.00;;;;;;5020009;28;20219;-74
2022/08/21 07:54:23;;;;;;;5.07;2.53;;;27.20;46.90;;;;;;5020141;28;20202;-75
2022/08/21 07:56:50;;;;;;;4.43;2.80;;;27.30;46.50;;;;;;5019667;28;20195;-74
2022/08/21 07:59:18;;;;;;;4.05;2.47;;;27.30;45.50;;;;;;5019806;28;20196;-75
2022/08/21 08:01:46;;;;;;;4.95;2.47;;;27.40;45.00;;;;;;5019519;28;20215;-74
2022/08/21 08:04:14;;;;;;;5.22;3.05;;;27.30;44.80;;;;;;5037472;28;20188;-74
2022/08/21 08:06:41;;;;;;;4.18;2.80;;;27.40;44.70;;;;;;5019387;28;20277;-74
2022/08/21 08:09:08;;;;;;;5.22;2.88;;;27.50;44.30;;;;;;5019316;28;20199;-74
2022/08/21 08:11:35;;;;;;;6.57;3.05;;;27.50;44.20;;;;;;5019107;28;20230;-75
2022/08/21 08:14:03;;;;;;;38.15;23.88;;;27.60;44.50;;;;;;5019356;28;20245;-76
2022/08/21 08:16:32;;;;;;;27.03;15.93;;;27.70;44.10;;;;;;5037487;28;20438;-76
2022/08/21 08:18:59;;;;;;;38.42;27.08;;;27.70;43.70;;;;;;5037296;28;20187;-74
2022/08/21 08:21:26;;;;;;;32.45;23.05;;;27.80;44.00;;;;;;5019356;28;20211;-74
2022/08/21 08:23:54;;;;;;;23.17;15.60;;;27.80;44.10;;;;;;5019051;28;20796;-76
2022/08/21 08:26:21;;;;;;;15.00;10.73;;;27.90;44.20;;;;;;5037111;28;20202;-74
2022/08/21 08:28:48;;;;;;;13.13;8.75;;;27.90;43.90;;;;;;5018909;28;20253;-76
2022/08/21 08:31:15;;;;;;;15.88;8.68;;;27.90;44.30;;;;;;5019074;28;20219;-75
2022/08/21 08:33:43;;;;;;;8.68;5.93;;;27.90;44.20;;;;;;5018952;28;20223;-75
2022/08/21 08:36:14;;;;;;;8.73;5.30;;;27.90;44.60;;;;;;5018913;28;20200;-74
2022/08/21 08:38:41;;;;;;;7.20;4.18;;;28.00;44.60;;;;;;5019224;28;20204;-74
2022/08/21 08:41:12;;;;;;;5.13;4.05;;;28.00;44.40;;;;;;5017602;28;20678;-75
2022/08/21 08:43:40;;;;;;;6.68;4.47;;;28.00;45.10;;;;;;5018077;28;21001;-74
2022/08/21 08:46:10;;;;;;;6.32;3.60;;;28.10;45.10;;;;;;5019268;28;20196;-77
2022/08/21 08:48:47;;;;;;;5.45;3.25;;;28.00;45.00;;;;;;5019010;28;20199;-76
2022/08/21 08:51:17;;;;;;;4.57;3.17;;;28.10;44.70;;;;;;5036815;28;20592;-76
2022/08/21 08:56:25;;;;;;;5.13;3.03;;;28.10;44.50;;;;;;5034310;28;20313;-57
2022/08/21 08:58:52;;;;;;;5.22;3.10;;;28.10;44.80;;;;;;5035270;28;20207;-57
2022/08/21 09:01:20;;;;;;;3.88;2.90;;;28.20;44.80;;;;;;5032196;22;20220;-73
2022/08/21 09:03:49;;;;;;;4.43;3.03;;;28.10;44.50;;;;;;5021448;28;20682;-74
2022/08/21 09:06:24;;;;;;;5.05;3.05;;;28.20;44.60;;;;;;5022359;28;20257;-72
2022/08/21 09:08:54;;;;;;;4.30;2.92;;;28.30;44.60;;;;;;5021995;28;20519;-73
2022/08/21 09:11:24;;;;;;;5.40;2.83;;;28.30;44.40;;;;;;5022055;28;20215;-74
2022/08/21 09:13:55;;;;;;;6.22;3.20;;;28.30;44.60;;;;;;5039300;28;20195;-74
2022/08/21 09:16:25;;;;;;;4.40;2.80;;;28.20;44.10;;;;;;5005323;28;20265;-73
2022/08/21 09:18:58;;;;;;;4.47;3.15;;;28.30;44.10;;;;;;5020180;28;20196;-74
2022/08/21 09:21:28;;;;;;;5.57;2.90;;;28.20;44.60;;;;;;5021683;28;20579;-74
2022/08/21 09:23:59;;;;;;;3.55;2.65;;;28.10;43.90;;;;;;5021475;28;20204;-74
2022/08/21 09:26:27;;;;;;;6.43;3.33;;;28.10;44.00;;;;;;5020735;28;20203;-75
2022/08/21 09:28:55;;;;;;;4.18;3.10;;;28.10;43.80;;;;;;5039499;28;20191;-75
2022/08/21 09:31:24;;;;;;;6.68;3.30;;;27.90;44.10;;;;;;5021542;28;20631;-74
2022/08/21 09:33:51;;;;;;;5.13;3.20;;;28.00;42.80;;;;;;5004854;28;20199;-75
2022/08/21 09:36:25;;;;;;;8.48;3.30;;;28.10;43.10;;;;;;5021302;28;20203;-74
2022/08/21 09:38:53;;;;;;;3.60;3.20;;;28.10;42.30;;;;;;5004540;28;20179;-74
2022/08/21 09:41:27;;;;;;;8.00;3.28;;;28.10;40.30;;;;;;5020576;28;20218;-74
2022/08/21 09:43:54;;;;;;;6.75;3.35;;;28.20;40.50;;;;;;5019743;28;20192;-74
2022/08/21 09:46:22;;;;;;;7.57;3.70;;;28.20;40.70;;;;;;5020636;28;20202;-74
2022/08/21 09:48:50;;;;;;;5.40;3.10;;;28.20;40.70;;;;;;5019988;28;20200;-74
2022/08/21 09:51:18;;;;;;;4.55;2.90;;;28.30;41.80;;;;;;5019775;28;20223;-76
2022/08/21 09:53:49;;;;;;;4.40;3.17;;;28.30;41.60;;;;;;5019326;28;20207;-74
2022/08/21 09:59:20;;;;;;;4.13;3.00;;;28.30;41.30;;;;;;5019426;28;20251;-74
2022/08/21 10:01:50;;;;;;;5.93;3.33;;;28.40;41.00;;;;;;5036753;28;20215;-75
2022/08/21 10:04:22;;;;;;;4.28;3.13;;;28.30;40.30;;;;;;5002520;28;20196;-75
2022/08/21 10:06:49;;;;;;;5.20;3.22;;;28.30;40.90;;;;;;5019579;28;20621;-74
2022/08/21 10:09:19;;;;;;;5.97;3.10;;;28.30;39.60;;;;;;5019167;28;20206;-74
2022/08/21 10:11:50;;;;;;;4.28;3.00;;;28.20;39.40;;;;;;5019153;28;20247;-74
2022/08/21 10:14:31;;;;;;;7.68;4.80;;;28.20;40.30;;;;;;5018988;28;20540;-74
2022/08/21 10:17:03;;;;;;;10.45;9.10;;;28.20;39.60;;;;;;5019070;28;20187;-74
2022/08/21 10:19:33;;;;;;;9.70;6.43;;;28.10;39.70;;;;;;5018477;28;20219;-72
2022/08/21 10:22:03;;;;;;;6.80;4.20;;;28.10;39.70;;;;;;5018822;28;20216;-74
2022/08/21 10:24:33;;;;;;;6.40;4.30;;;28.10;39.30;;;;;;5018800;28;20203;-73
2022/08/21 10:27:06;;;;;;;6.32;3.70;;;28.10;39.90;;;;;;5018430;28;20202;-74
2022/08/21 10:29:44;;;;;;;4.57;4.05;;;28.10;39.50;;;;;;5019003;28;20222;-74
2022/08/21 10:32:18;;;;;;;6.05;3.88;;;28.00;40.20;;;;;;5020955;28;20223;-75
2022/08/21 10:34:48;;;;;;;5.50;3.50;;;28.00;40.60;;;;;;5020778;28;20187;-75
2022/08/21 10:37:22;;;;;;;4.72;3.15;;;27.90;41.70;;;;;;5003115;28;20199;-74
2022/08/21 10:39:56;;;;;;;5.78;3.47;;;27.90;39.80;;;;;;5037625;28;20577;-74
2022/08/21 10:42:28;;;;;;;5.97;3.17;;;27.90;39.60;;;;;;5020358;28;20187;-74
2022/08/21 10:45:02;;;;;;;4.35;3.00;;;27.90;40.20;;;;;;5021045;28;20202;-75
2022/08/21 10:47:31;;;;;;;5.13;4.63;;;27.90;40.70;;;;;;5019319;28;20190;-75
2022/08/21 10:50:01;;;;;;;8.15;6.50;;;27.80;40.50;;;;;;5019437;28;20216;-74
2022/08/21 10:52:42;;;;;;;5.38;4.10;;;27.80;39.60;;;;;;5019200;28;20216;-74
2022/08/21 10:55:12;;;;;;;4.93;3.97;;;27.80;40.30;;;;;;5019033;28;20183;-74
2022/08/21 10:57:43;;;;;;;5.57;3.33;;;27.70;39.20;;;;;;5020046;28;20191;-74
2022/08/21 11:00:12;;;;;;;4.78;3.28;;;27.60;38.60;;;;;;5019099;28;20215;-75
2022/08/21 11:02:41;;;;;;;5.30;3.28;;;27.50;38.90;;;;;;5036218;28;20198;-75
2022/08/21 11:05:12;;;;;;;6.65;3.92;;;27.60;39.30;;;;;;5019466;28;20242;-74
2022/08/21 11:07:44;;;;;;;5.60;3.45;;;27.60;39.70;;;;;;5019229;28;20624;-74
2022/08/21 11:10:15;;;;;;;7.10;3.83;;;27.50;40.10;;;;;;5038028;28;20671;-74
2022/08/21 11:12:44;;;;;;;6.03;3.55;;;27.50;40.70;;;;;;5003116;28;20211;-75
2022/08/21 11:15:29;;;;;;;4.85;3.42;;;27.50;41.20;;;;;;5019284;28;20203;-74
2022/08/21 11:18:02;;;;;;;5.38;3.60;;;27.40;41.40;;;;;;5019111;28;20195;-74
2022/08/21 11:20:30;;;;;;;3.63;3.00;;;27.40;41.60;;;;;;5019530;28;20219;-74
2022/08/21 11:22:59;;;;;;;4.78;3.55;;;27.40;41.80;;;;;;5019574;28;20188;-74
2022/08/21 11:25:31;;;;;;;6.68;3.45;;;27.30;42.10;;;;;;5019341;28;20203;-74
2022/08/21 11:28:01;;;;;;;4.22;3.30;;;27.30;42.10;;;;;;5018748;28;20654;-74
2022/08/21 11:30:31;;;;;;;3.20;2.90;;;27.30;42.20;;;;;;5018428;28;20310;-75
2022/08/21 11:33:10;;;;;;;5.10;2.97;;;27.30;42.50;;;;;;5019391;28;20242;-74
2022/08/21 11:35:40;;;;;;;6.57;3.30;;;27.30;42.50;;;;;;5019010;28;20238;-74
2022/08/21 11:38:23;;;;;;;4.70;3.05;;;27.20;42.70;;;;;;5019090;28;20196;-74
2022/08/21 11:41:06;;;;;;;3.88;3.03;;;27.20;42.70;;;;;;5019206;28;20235;-73
2022/08/21 11:43:38;;;;;;;5.20;3.20;;;27.20;42.90;;;;;;5019417;28;20187;-74
2022/08/21 11:46:21;;;;;;;3.75;2.95;;;27.20;43.20;;;;;;5019601;28;20209;-74
2022/08/21 11:48:58;;;;;;;4.82;3.20;;;27.20;43.30;;;;;;5019857;28;20253;-74
2022/08/21 11:51:28;;;;;;;3.53;2.75;;;27.20;43.40;;;;;;5018988;28;20219;-75
2022/08/21 11:54:00;;;;;;;4.45;3.22;;;27.10;43.40;;;;;;5019191;28;20237;-75
2022/08/21 11:56:31;;;;;;;3.95;3.00;;;27.10;43.50;;;;;;5002638;28;20223;-75
2022/08/21 11:59:01;;;;;;;3.50;2.95;;;27.10;43.60;;;;;;5019317;28;20199;-75
2022/08/21 12:01:31;;;;;;;4.00;3.20;;;27.10;43.60;;;;;;5019191;28;20227;-74
2022/08/21 12:04:00;;;;;;;3.58;3.22;;;27.00;43.70;;;;;;5019850;28;20202;-75
2022/08/21 12:06:32;;;;;;;3.15;2.78;;;27.10;44.20;;;;;;5019724;28;20609;-74
2022/08/21 12:09:01;;;;;;;4.90;3.30;;;27.10;44.00;;;;;;5019762;28;20195;-76
2022/08/21 12:11:30;;;;;;;4.10;3.22;;;27.00;44.30;;;;;;5004091;28;20223;-75
2022/08/21 12:13:59;;;;;;;4.07;3.03;;;27.00;44.90;;;;;;5019291;28;20581;-75
2022/08/21 12:16:31;;;;;;;3.40;3.10;;;27.00;44.90;;;;;;5006779;28;20195;-74
2022/08/21 12:19:04;;;;;;;3.65;3.10;;;27.00;44.70;;;;;;5022313;28;20599;-75
2022/08/21 12:21:31;;;;;;;3.97;3.20;;;27.00;44.90;;;;;;5022441;28;20218;-74
2022/08/21 12:24:04;;;;;;;3.55;3.08;;;27.00;44.90;;;;;;5021446;28;20231;-75
2022/08/21 12:26:34;;;;;;;4.85;2.92;;;27.00;45.00;;;;;;5022235;28;20215;-75
2022/08/21 12:29:10;;;;;;;4.10;3.38;;;27.00;44.60;;;;;;5021572;28;20211;-74
2022/08/21 12:31:47;;;;;;;5.07;2.78;;;27.00;44.50;;;;;;5021854;28;20235;-75
2022/08/21 12:34:15;;;;;;;4.97;3.08;;;27.00;44.30;;;;;;5021474;28;20211;-76
2022/08/21 12:36:44;;;;;;;5.05;3.08;;;27.00;44.20;;;;;;5021147;28;20606;-75
2022/08/21 12:39:19;;;;;;;3.20;2.90;;;27.00;44.10;;;;;;5022299;28;20199;-75
2022/08/21 12:41:51;;;;;;;4.70;3.35;;;26.90;44.10;;;;;;5006048;28;20219;-75
2022/08/21 12:44:18;;;;;;;4.45;2.92;;;26.90;44.00;;;;;;5022093;28;20192;-74
2022/08/21 12:46:48;;;;;;;4.25;2.97;;;26.90;43.90;;;;;;5022331;28;20211;-74
2022/08/21 12:49:17;;;;;;;3.42;2.83;;;26.90;43.90;;;;;;5022077;28;20196;-75
2022/08/21 12:51:52;;;;;;;3.70;3.03;;;26.90;43.80;;;;;;5021654;28;20227;-74
2022/08/21 12:54:27;;;;;;;4.10;3.30;;;26.80;43.90;;;;;;5022046;28;20677;-74
2022/08/21 12:57:00;;;;;;;4.60;2.90;;;26.90;43.70;;;;;;5022313;28;20228;-75
2022/08/21 12:59:27;;;;;;;5.35;2.95;;;26.90;43.70;;;;;;5022169;28;20294;-74
2022/08/21 13:01:55;;;;;;;3.88;3.28;;;26.80;43.60;;;;;;5022253;28;20223;-74
2022/08/21 13:04:23;;;;;;;3.75;2.92;;;26.80;43.60;;;;;;5021725;28;20195;-75